sensor_id;sensor_type;location;lat;lon;timestamp;P1;durP1;ratioP1;P2;durP2;ratioP2
20655;SDS011;10487;53.320;8.672;2022-11-15T00:01:14;0.40;;;0.40;;
20655;SDS011;10487;53.320;8.672;2022-11-15T00:04:18;0.50;;;0.50;;
20655;SDS011;10487;53.320;8.672;2022-11-15T00:07:19;0.50;;;0.47;;
20655;SDS011;10487;53.320;8.672;2022-11-15T00:10:41;0.52;;;0.40;;
20655;SDS011;10487;53.320;8.672;2022-11-15T00:13:43;0.55;;;0.40;;
20655;SDS011;10487;53.320;8.672;2022-11-15T00:16:45;0.50;;;0.50;;
20655;SDS011;10487;53.320;8.672;2022-11-15T00:19:47;0.40;;;0.40;;
20655;SDS011;10487;53.320;8.672;2022-11-15T00:22:48;0.35;;;0.35;;
20655;SDS011;10487;53.320;8.672;2022-11-15T00:25:56;0.40;;;0.40;;
20655;SDS011;10487;53.320;8.672;2022-11-15T00:28:59;0.40;;;0.38;;
20655;SDS011;10487;53.320;8.672;2022-11-15T00:32:00;0.43;;;0.43;;
20655;SDS011;10487;53.320;8.672;2022-11-15T00:35:02;0.40;;;0.40;;
20655;SDS011;10487;53.320;8.672;2022-11-15T00:38:04;0.30;;;0.30;;
20655;SDS011;10487;53.320;8.672;2022-11-15T00:41:06;0.43;;;0.43;;
20655;SDS011;10487;53.320;8.672;2022-11-15T00:44:10;0.40;;;0.40;;
20655;SDS011;10487;53.320;8.672;2022-11-15T00:47:11;0.50;;;0.40;;
20655;SDS011;10487;53.320;8.672;2022-11-15T00:50:13;0.40;;;0.40;;
20655;SDS011;10487;53.320;8.672;2022-11-15T00:53:16;0.32;;;0.32;;
20655;SDS011;10487;53.320;8.672;2022-11-15T00:56:17;0.30;;;0.30;;
20655;SDS011;10487;53.320;8.672;2022-11-15T00:59:19;0.40;;;0.40;;
20655;SDS011;10487;53.320;8.672;2022-11-15T01:02:21;0.43;;;0.40;;
20655;SDS011;10487;53.320;8.672;2022-11-15T01:05:22;0.32;;;0.30;;
20655;SDS011;10487;53.320;8.672;2022-11-15T01:08:24;0.30;;;0.30;;
20655;SDS011;10487;53.320;8.672;2022-11-15T01:11:26;0.35;;;0.30;;
20655;SDS011;10487;53.320;8.672;2022-11-15T01:14:27;0.28;;;0.28;;
20655;SDS011;10487;53.320;8.672;2022-11-15T01:17:30;0.40;;;0.40;;
20655;SDS011;10487;53.320;8.672;2022-11-15T01:20:31;0.40;;;0.40;;
20655;SDS011;10487;53.320;8.672;2022-11-15T01:23:33;0.82;;;0.30;;
20655;SDS011;10487;53.320;8.672;2022-11-15T01:26:35;0.30;;;0.30;;
20655;SDS011;10487;53.320;8.672;2022-11-15T01:29:38;0.32;;;0.30;;
20655;SDS011;10487;53.320;8.672;2022-11-15T01:32:39;0.30;;;0.30;;
20655;SDS011;10487;53.320;8.672;2022-11-15T01:35:41;0.40;;;0.40;;
20655;SDS011;10487;53.320;8.672;2022-11-15T01:38:42;0.35;;;0.35;;
20655;SDS011;10487;53.320;8.672;2022-11-15T01:41:44;0.35;;;0.35;;
20655;SDS011;10487;53.320;8.672;2022-11-15T01:44:49;0.30;;;0.30;;
20655;SDS011;10487;53.320;8.672;2022-11-15T01:47:53;0.30;;;0.30;;
20655;SDS011;10487;53.320;8.672;2022-11-15T01:50:56;0.30;;;0.30;;
20655;SDS011;10487;53.320;8.672;2022-11-15T01:54:02;0.30;;;0.30;;
20655;SDS011;10487;53.320;8.672;2022-11-15T01:57:08;0.40;;;0.30;;
20655;SDS011;10487;53.320;8.672;2022-11-15T02:00:12;0.50;;;0.40;;
20655;SDS011;10487;53.320;8.672;2022-11-15T02:03:15;0.32;;;0.30;;
20655;SDS011;10487;53.320;8.672;2022-11-15T02:06:18;0.38;;;0.35;;
20655;SDS011;10487;53.320;8.672;2022-11-15T02:09:21;0.52;;;0.30;;
20655;SDS011;10487;53.320;8.672;2022-11-15T02:12:22;0.40;;;0.30;;
20655;SDS011;10487;53.320;8.672;2022-11-15T02:15:25;0.35;;;0.35;;
20655;SDS011;10487;53.320;8.672;2022-11-15T02:18:34;0.30;;;0.30;;
20655;SDS011;10487;53.320;8.672;2022-11-15T02:21:41;0.30;;;0.30;;
20655;SDS011;10487;53.320;8.672;2022-11-15T02:41:06;0.30;;;0.30;;
20655;SDS011;10487;53.320;8.672;2022-11-15T02:44:14;0.30;;;0.30;;
20655;SDS011;10487;53.320;8.672;2022-11-15T02:47:25;0.38;;;0.35;;
20655;SDS011;10487;53.320;8.672;2022-11-15T02:50:31;0.30;;;0.30;;
20655;SDS011;10487;53.320;8.672;2022-11-15T02:53:34;0.30;;;0.30;;
20655;SDS011;10487;53.320;8.672;2022-11-15T02:56:36;0.30;;;0.30;;
20655;SDS011;10487;53.320;8.672;2022-11-15T03:00:12;0.38;;;0.30;;
20655;SDS011;10487;53.320;8.672;2022-11-15T03:03:21;0.30;;;0.30;;
20655;SDS011;10487;53.320;8.672;2022-11-15T03:07:00;0.30;;;0.30;;
20655;SDS011;10487;53.320;8.672;2022-11-15T03:10:10;0.30;;;0.30;;
20655;SDS011;10487;53.320;8.672;2022-11-15T03:20:17;0.40;;;0.35;;
20655;SDS011;10487;53.320;8.672;2022-11-15T03:23:20;0.50;;;0.40;;
20655;SDS011;10487;53.320;8.672;2022-11-15T03:26:22;0.30;;;0.30;;
20655;SDS011;10487;53.320;8.672;2022-11-15T03:29:29;0.30;;;0.30;;
20655;SDS011;10487;53.320;8.672;2022-11-15T03:32:36;0.30;;;0.30;;
20655;SDS011;10487;53.320;8.672;2022-11-15T03:35:42;0.40;;;0.40;;
20655;SDS011;10487;53.320;8.672;2022-11-15T03:38:45;0.30;;;0.30;;
20655;SDS011;10487;53.320;8.672;2022-11-15T03:41:52;0.20;;;0.20;;
20655;SDS011;10487;53.320;8.672;2022-11-15T03:45:14;0.30;;;0.25;;
20655;SDS011;10487;53.320;8.672;2022-11-15T03:48:22;0.30;;;0.30;;
20655;SDS011;10487;53.320;8.672;2022-11-15T03:51:28;0.32;;;0.32;;
20655;SDS011;10487;53.320;8.672;2022-11-15T03:54:30;0.30;;;0.30;;
20655;SDS011;10487;53.320;8.672;2022-11-15T03:57:32;0.40;;;0.40;;
20655;SDS011;10487;53.320;8.672;2022-11-15T04:00:34;0.40;;;0.40;;
20655;SDS011;10487;53.320;8.672;2022-11-15T04:03:35;0.35;;;0.35;;
20655;SDS011;10487;53.320;8.672;2022-11-15T04:06:37;0.40;;;0.40;;
20655;SDS011;10487;53.320;8.672;2022-11-15T04:09:38;0.40;;;0.40;;
20655;SDS011;10487;53.320;8.672;2022-11-15T04:13:01;0.63;;;0.40;;
20655;SDS011;10487;53.320;8.672;2022-11-15T04:16:03;0.40;;;0.40;;
20655;SDS011;10487;53.320;8.672;2022-11-15T04:19:05;0.35;;;0.30;;
20655;SDS011;10487;53.320;8.672;2022-11-15T04:22:25;0.55;;;0.50;;
20655;SDS011;10487;53.320;8.672;2022-11-15T04:25:45;0.40;;;0.40;;
20655;SDS011;10487;53.320;8.672;2022-11-15T04:28:53;0.40;;;0.40;;
20655;SDS011;10487;53.320;8.672;2022-11-15T04:32:13;0.70;;;0.47;;
20655;SDS011;10487;53.320;8.672;2022-11-15T04:35:15;0.73;;;0.50;;
20655;SDS011;10487;53.320;8.672;2022-11-15T04:38:16;0.68;;;0.50;;
20655;SDS011;10487;53.320;8.672;2022-11-15T04:41:18;0.50;;;0.50;;
20655;SDS011;10487;53.320;8.672;2022-11-15T04:44:20;0.43;;;0.32;;
20655;SDS011;10487;53.320;8.672;2022-11-15T04:47:21;0.40;;;0.40;;
20655;SDS011;10487;53.320;8.672;2022-11-15T04:50:23;1.10;;;0.60;;
20655;SDS011;10487;53.320;8.672;2022-11-15T04:53:24;0.75;;;0.50;;
20655;SDS011;10487;53.320;8.672;2022-11-15T04:56:26;1.02;;;0.60;;
20655;SDS011;10487;53.320;8.672;2022-11-15T04:59:27;1.20;;;0.60;;
20655;SDS011;10487;53.320;8.672;2022-11-15T05:02:29;0.60;;;0.50;;
20655;SDS011;10487;53.320;8.672;2022-11-15T05:05:50;0.60;;;0.60;;
20655;SDS011;10487;53.320;8.672;2022-11-15T05:08:52;0.60;;;0.60;;
20655;SDS011;10487;53.320;8.672;2022-11-15T05:11:54;0.30;;;0.30;;
20655;SDS011;10487;53.320;8.672;2022-11-15T05:14:55;0.55;;;0.50;;
20655;SDS011;10487;53.320;8.672;2022-11-15T05:17:58;0.50;;;0.50;;
20655;SDS011;10487;53.320;8.672;2022-11-15T05:21:04;0.30;;;0.30;;
20655;SDS011;10487;53.320;8.672;2022-11-15T05:24:08;0.40;;;0.40;;
20655;SDS011;10487;53.320;8.672;2022-11-15T05:27:11;0.50;;;0.40;;
20655;SDS011;10487;53.320;8.672;2022-11-15T05:30:12;0.50;;;0.50;;
20655;SDS011;10487;53.320;8.672;2022-11-15T05:33:14;0.55;;;0.47;;
20655;SDS011;10487;53.320;8.672;2022-11-15T05:39:21;0.40;;;0.40;;
20655;SDS011;10487;53.320;8.672;2022-11-15T05:42:23;0.40;;;0.40;;
20655;SDS011;10487;53.320;8.672;2022-11-15T05:45:27;0.50;;;0.50;;
20655;SDS011;10487;53.320;8.672;2022-11-15T05:48:30;0.50;;;0.50;;
20655;SDS011;10487;53.320;8.672;2022-11-15T05:51:32;0.40;;;0.35;;
20655;SDS011;10487;53.320;8.672;2022-11-15T05:54:34;0.40;;;0.40;;
20655;SDS011;10487;53.320;8.672;2022-11-15T05:57:38;0.30;;;0.30;;
20655;SDS011;10487;53.320;8.672;2022-11-15T06:00:39;0.32;;;0.32;;
20655;SDS011;10487;53.320;8.672;2022-11-15T06:03:41;0.40;;;0.40;;
20655;SDS011;10487;53.320;8.672;2022-11-15T06:06:42;0.50;;;0.40;;
20655;SDS011;10487;53.320;8.672;2022-11-15T06:09:44;0.40;;;0.35;;
20655;SDS011;10487;53.320;8.672;2022-11-15T06:12:46;0.52;;;0.40;;
20655;SDS011;10487;53.320;8.672;2022-11-15T06:15:47;0.57;;;0.47;;
20655;SDS011;10487;53.320;8.672;2022-11-15T06:18:49;0.50;;;0.50;;
20655;SDS011;10487;53.320;8.672;2022-11-15T06:21:50;0.50;;;0.40;;
20655;SDS011;10487;53.320;8.672;2022-11-15T06:24:52;0.38;;;0.38;;
20655;SDS011;10487;53.320;8.672;2022-11-15T06:27:54;0.40;;;0.40;;
20655;SDS011;10487;53.320;8.672;2022-11-15T06:31:07;0.20;;;0.20;;
20655;SDS011;10487;53.320;8.672;2022-11-15T06:34:12;0.30;;;0.30;;
20655;SDS011;10487;53.320;8.672;2022-11-15T06:37:13;0.20;;;0.20;;
20655;SDS011;10487;53.320;8.672;2022-11-15T06:40:15;0.30;;;0.30;;
20655;SDS011;10487;53.320;8.672;2022-11-15T06:43:17;0.40;;;0.30;;
20655;SDS011;10487;53.320;8.672;2022-11-15T06:46:18;0.30;;;0.30;;
20655;SDS011;10487;53.320;8.672;2022-11-15T06:49:20;0.20;;;0.20;;
20655;SDS011;10487;53.320;8.672;2022-11-15T06:52:21;0.40;;;0.40;;
20655;SDS011;10487;53.320;8.672;2022-11-15T06:55:23;0.22;;;0.22;;
20655;SDS011;10487;53.320;8.672;2022-11-15T06:58:25;0.20;;;0.20;;
20655;SDS011;10487;53.320;8.672;2022-11-15T07:01:26;0.28;;;0.28;;
20655;SDS011;10487;53.320;8.672;2022-11-15T07:04:28;0.20;;;0.20;;
20655;SDS011;10487;53.320;8.672;2022-11-15T07:07:29;0.30;;;0.30;;
20655;SDS011;10487;53.320;8.672;2022-11-15T07:10:31;0.28;;;0.25;;
20655;SDS011;10487;53.320;8.672;2022-11-15T07:13:33;0.25;;;0.25;;
20655;SDS011;10487;53.320;8.672;2022-11-15T07:16:36;0.20;;;0.20;;
20655;SDS011;10487;53.320;8.672;2022-11-15T07:19:38;0.20;;;0.20;;
20655;SDS011;10487;53.320;8.672;2022-11-15T07:22:40;0.32;;;0.32;;
20655;SDS011;10487;53.320;8.672;2022-11-15T07:25:42;0.20;;;0.20;;
20655;SDS011;10487;53.320;8.672;2022-11-15T07:28:44;0.20;;;0.20;;
20655;SDS011;10487;53.320;8.672;2022-11-15T07:31:45;0.32;;;0.32;;
20655;SDS011;10487;53.320;8.672;2022-11-15T07:34:47;0.20;;;0.20;;
20655;SDS011;10487;53.320;8.672;2022-11-15T07:37:53;0.20;;;0.20;;
20655;SDS011;10487;53.320;8.672;2022-11-15T07:41:04;0.28;;;0.28;;
20655;SDS011;10487;53.320;8.672;2022-11-15T07:44:06;0.30;;;0.30;;
20655;SDS011;10487;53.320;8.672;2022-11-15T07:47:08;0.30;;;0.30;;
20655;SDS011;10487;53.320;8.672;2022-11-15T07:50:09;0.30;;;0.30;;
20655;SDS011;10487;53.320;8.672;2022-11-15T07:53:11;0.20;;;0.20;;
20655;SDS011;10487;53.320;8.672;2022-11-15T07:56:12;0.20;;;0.20;;
20655;SDS011;10487;53.320;8.672;2022-11-15T07:59:14;0.30;;;0.20;;
20655;SDS011;10487;53.320;8.672;2022-11-15T08:02:16;0.55;;;0.52;;
20655;SDS011;10487;53.320;8.672;2022-11-15T08:05:19;0.20;;;0.20;;
20655;SDS011;10487;53.320;8.672;2022-11-15T08:08:20;0.30;;;0.20;;
20655;SDS011;10487;53.320;8.672;2022-11-15T08:11:23;0.30;;;0.30;;
20655;SDS011;10487;53.320;8.672;2022-11-15T08:14:24;0.20;;;0.20;;
20655;SDS011;10487;53.320;8.672;2022-11-15T08:17:26;0.20;;;0.20;;
20655;SDS011;10487;53.320;8.672;2022-11-15T08:20:29;0.30;;;0.30;;
20655;SDS011;10487;53.320;8.672;2022-11-15T08:23:31;0.40;;;0.40;;
20655;SDS011;10487;53.320;8.672;2022-11-15T08:26:33;0.40;;;0.40;;
20655;SDS011;10487;53.320;8.672;2022-11-15T08:29:35;0.40;;;0.30;;
20655;SDS011;10487;53.320;8.672;2022-11-15T08:32:37;0.30;;;0.30;;
20655;SDS011;10487;53.320;8.672;2022-11-15T08:35:39;0.35;;;0.20;;
20655;SDS011;10487;53.320;8.672;2022-11-15T08:38:42;0.30;;;0.30;;
20655;SDS011;10487;53.320;8.672;2022-11-15T08:41:44;0.40;;;0.40;;
20655;SDS011;10487;53.320;8.672;2022-11-15T08:44:46;0.50;;;0.40;;
20655;SDS011;10487;53.320;8.672;2022-11-15T08:47:47;0.40;;;0.40;;
20655;SDS011;10487;53.320;8.672;2022-11-15T08:50:55;0.35;;;0.35;;
20655;SDS011;10487;53.320;8.672;2022-11-15T08:53:57;0.40;;;0.40;;
20655;SDS011;10487;53.320;8.672;2022-11-15T08:56:59;0.68;;;0.40;;
20655;SDS011;10487;53.320;8.672;2022-11-15T09:00:00;0.38;;;0.38;;
20655;SDS011;10487;53.320;8.672;2022-11-15T09:03:05;0.60;;;0.40;;
20655;SDS011;10487;53.320;8.672;2022-11-15T09:06:07;0.35;;;0.35;;
20655;SDS011;10487;53.320;8.672;2022-11-15T09:09:10;0.52;;;0.40;;
20655;SDS011;10487;53.320;8.672;2022-11-15T09:12:11;0.30;;;0.30;;
20655;SDS011;10487;53.320;8.672;2022-11-15T09:15:14;0.40;;;0.40;;
20655;SDS011;10487;53.320;8.672;2022-11-15T09:18:16;0.50;;;0.40;;
20655;SDS011;10487;53.320;8.672;2022-11-15T09:21:18;0.40;;;0.40;;
20655;SDS011;10487;53.320;8.672;2022-11-15T09:24:19;0.32;;;0.32;;
20655;SDS011;10487;53.320;8.672;2022-11-15T09:27:22;1.00;;;0.40;;
20655;SDS011;10487;53.320;8.672;2022-11-15T09:30:24;0.30;;;0.30;;
20655;SDS011;10487;53.320;8.672;2022-11-15T09:33:26;0.20;;;0.20;;
20655;SDS011;10487;53.320;8.672;2022-11-15T09:36:29;0.20;;;0.20;;
20655;SDS011;10487;53.320;8.672;2022-11-15T09:39:30;0.40;;;0.30;;
20655;SDS011;10487;53.320;8.672;2022-11-15T09:42:47;0.20;;;0.20;;
20655;SDS011;10487;53.320;8.672;2022-11-15T09:49:17;0.20;;;0.20;;
20655;SDS011;10487;53.320;8.672;2022-11-15T09:52:19;0.30;;;0.30;;
20655;SDS011;10487;53.320;8.672;2022-11-15T09:55:25;0.77;;;0.30;;
20655;SDS011;10487;53.320;8.672;2022-11-15T09:59:00;0.25;;;0.20;;
20655;SDS011;10487;53.320;8.672;2022-11-15T10:05:48;0.20;;;0.20;;
20655;SDS011;10487;53.320;8.672;2022-11-15T10:09:00;0.30;;;0.30;;
20655;SDS011;10487;53.320;8.672;2022-11-15T10:12:24;0.40;;;0.40;;
20655;SDS011;10487;53.320;8.672;2022-11-15T10:15:28;0.30;;;0.30;;
20655;SDS011;10487;53.320;8.672;2022-11-15T10:18:34;0.25;;;0.25;;
20655;SDS011;10487;53.320;8.672;2022-11-15T10:24:43;0.38;;;0.38;;
20655;SDS011;10487;53.320;8.672;2022-11-15T10:27:51;0.30;;;0.30;;
20655;SDS011;10487;53.320;8.672;2022-11-15T10:30:59;0.35;;;0.35;;
20655;SDS011;10487;53.320;8.672;2022-11-15T10:34:15;0.50;;;0.50;;
20655;SDS011;10487;53.320;8.672;2022-11-15T10:37:30;0.38;;;0.38;;
20655;SDS011;10487;53.320;8.672;2022-11-15T10:40:33;0.35;;;0.35;;
20655;SDS011;10487;53.320;8.672;2022-11-15T10:43:35;0.40;;;0.40;;
20655;SDS011;10487;53.320;8.672;2022-11-15T10:46:38;0.30;;;0.30;;
20655;SDS011;10487;53.320;8.672;2022-11-15T10:53:31;0.30;;;0.30;;
20655;SDS011;10487;53.320;8.672;2022-11-15T10:56:40;0.22;;;0.22;;
20655;SDS011;10487;53.320;8.672;2022-11-15T10:59:48;0.17;;;0.17;;
20655;SDS011;10487;53.320;8.672;2022-11-15T11:06:09;0.20;;;0.20;;
20655;SDS011;10487;53.320;8.672;2022-11-15T11:12:34;0.20;;;0.20;;
20655;SDS011;10487;53.320;8.672;2022-11-15T11:15:36;0.22;;;0.22;;
20655;SDS011;10487;53.320;8.672;2022-11-15T11:32:03;0.20;;;0.20;;
20655;SDS011;10487;53.320;8.672;2022-11-15T11:49:02;0.28;;;0.28;;
20655;SDS011;10487;53.320;8.672;2022-11-15T11:51:58;0.20;;;0.20;;
20655;SDS011;10487;53.320;8.672;2022-11-15T12:01:28;0.20;;;0.20;;
20655;SDS011;10487;53.320;8.672;2022-11-15T12:04:36;0.20;;;0.20;;
20655;SDS011;10487;53.320;8.672;2022-11-15T12:07:41;0.20;;;0.20;;
20655;SDS011;10487;53.320;8.672;2022-11-15T12:10:48;0.10;;;0.10;;
20655;SDS011;10487;53.320;8.672;2022-11-15T12:14:01;0.10;;;0.10;;
20655;SDS011;10487;53.320;8.672;2022-11-15T12:17:10;0.28;;;0.17;;
20655;SDS011;10487;53.320;8.672;2022-11-15T12:20:26;0.10;;;0.10;;
20655;SDS011;10487;53.320;8.672;2022-11-15T12:23:47;0.20;;;0.20;;
20655;SDS011;10487;53.320;8.672;2022-11-15T12:30:14;0.20;;;0.20;;
20655;SDS011;10487;53.320;8.672;2022-11-15T12:40:03;0.20;;;0.20;;
20655;SDS011;10487;53.320;8.672;2022-11-15T12:56:25;0.20;;;0.20;;
20655;SDS011;10487;53.320;8.672;2022-11-15T13:02:50;0.20;;;0.20;;
20655;SDS011;10487;53.320;8.672;2022-11-15T13:15:46;0.10;;;0.10;;
20655;SDS011;10487;53.320;8.672;2022-11-15T13:18:57;0.20;;;0.20;;
20655;SDS011;10487;53.320;8.672;2022-11-15T13:22:00;0.20;;;0.20;;
20655;SDS011;10487;53.320;8.672;2022-11-15T13:28:54;0.20;;;0.20;;
20655;SDS011;10487;53.320;8.672;2022-11-15T13:31:57;0.20;;;0.20;;
20655;SDS011;10487;53.320;8.672;2022-11-15T13:34:59;0.40;;;0.30;;
20655;SDS011;10487;53.320;8.672;2022-11-15T13:38:03;0.20;;;0.20;;
20655;SDS011;10487;53.320;8.672;2022-11-15T13:44:25;0.10;;;0.10;;
20655;SDS011;10487;53.320;8.672;2022-11-15T13:47:32;0.13;;;0.13;;
20655;SDS011;10487;53.320;8.672;2022-11-15T13:50:34;0.20;;;0.20;;
20655;SDS011;10487;53.320;8.672;2022-11-15T13:53:40;0.20;;;0.20;;
20655;SDS011;10487;53.320;8.672;2022-11-15T13:56:49;0.20;;;0.20;;
20655;SDS011;10487;53.320;8.672;2022-11-15T14:00:01;1.00;;;0.30;;
20655;SDS011;10487;53.320;8.672;2022-11-15T14:03:08;0.28;;;0.20;;
20655;SDS011;10487;53.320;8.672;2022-11-15T14:06:16;0.20;;;0.20;;
20655;SDS011;10487;53.320;8.672;2022-11-15T14:12:35;0.30;;;0.30;;
20655;SDS011;10487;53.320;8.672;2022-11-15T14:15:37;0.30;;;0.30;;
20655;SDS011;10487;53.320;8.672;2022-11-15T14:25:19;0.22;;;0.20;;
20655;SDS011;10487;53.320;8.672;2022-11-15T14:31:24;0.20;;;0.20;;
20655;SDS011;10487;53.320;8.672;2022-11-15T14:34:26;0.20;;;0.20;;
20655;SDS011;10487;53.320;8.672;2022-11-15T14:37:31;0.13;;;0.13;;
20655;SDS011;10487;53.320;8.672;2022-11-15T14:40:35;0.20;;;0.20;;
20655;SDS011;10487;53.320;8.672;2022-11-15T14:43:37;0.20;;;0.20;;
20655;SDS011;10487;53.320;8.672;2022-11-15T14:46:38;0.20;;;0.20;;
20655;SDS011;10487;53.320;8.672;2022-11-15T14:49:40;0.25;;;0.20;;
20655;SDS011;10487;53.320;8.672;2022-11-15T14:52:42;0.20;;;0.20;;
20655;SDS011;10487;53.320;8.672;2022-11-15T14:55:44;0.10;;;0.10;;
20655;SDS011;10487;53.320;8.672;2022-11-15T14:58:46;0.17;;;0.17;;
20655;SDS011;10487;53.320;8.672;2022-11-15T15:01:48;0.20;;;0.20;;
20655;SDS011;10487;53.320;8.672;2022-11-15T15:04:49;0.20;;;0.20;;
20655;SDS011;10487;53.320;8.672;2022-11-15T15:07:51;0.20;;;0.20;;
20655;SDS011;10487;53.320;8.672;2022-11-15T15:10:54;0.20;;;0.20;;
20655;SDS011;10487;53.320;8.672;2022-11-15T15:13:56;0.20;;;0.20;;
20655;SDS011;10487;53.320;8.672;2022-11-15T15:16:59;0.20;;;0.20;;
20655;SDS011;10487;53.320;8.672;2022-11-15T15:20:00;0.17;;;0.17;;
20655;SDS011;10487;53.320;8.672;2022-11-15T15:23:02;0.10;;;0.10;;
20655;SDS011;10487;53.320;8.672;2022-11-15T15:26:04;0.20;;;0.20;;
20655;SDS011;10487;53.320;8.672;2022-11-15T15:29:05;0.10;;;0.10;;
20655;SDS011;10487;53.320;8.672;2022-11-15T15:32:08;0.20;;;0.20;;
20655;SDS011;10487;53.320;8.672;2022-11-15T15:35:13;0.20;;;0.20;;
20655;SDS011;10487;53.320;8.672;2022-11-15T15:38:15;0.20;;;0.20;;
20655;SDS011;10487;53.320;8.672;2022-11-15T15:41:17;0.20;;;0.20;;
20655;SDS011;10487;53.320;8.672;2022-11-15T15:44:18;0.20;;;0.20;;
20655;SDS011;10487;53.320;8.672;2022-11-15T15:47:21;0.20;;;0.20;;
20655;SDS011;10487;53.320;8.672;2022-11-15T15:53:25;0.10;;;0.10;;
20655;SDS011;10487;53.320;8.672;2022-11-15T15:56:26;0.20;;;0.20;;
20655;SDS011;10487;53.320;8.672;2022-11-15T15:59:29;0.20;;;0.20;;
20655;SDS011;10487;53.320;8.672;2022-11-15T16:02:30;0.20;;;0.20;;
20655;SDS011;10487;53.320;8.672;2022-11-15T16:05:39;0.20;;;0.20;;
20655;SDS011;10487;53.320;8.672;2022-11-15T16:08:41;0.20;;;0.20;;
20655;SDS011;10487;53.320;8.672;2022-11-15T16:12:02;0.22;;;0.22;;
20655;SDS011;10487;53.320;8.672;2022-11-15T16:15:04;0.20;;;0.20;;
20655;SDS011;10487;53.320;8.672;2022-11-15T16:18:06;0.20;;;0.20;;
20655;SDS011;10487;53.320;8.672;2022-11-15T16:21:13;0.20;;;0.20;;
20655;SDS011;10487;53.320;8.672;2022-11-15T16:24:15;0.17;;;0.15;;
20655;SDS011;10487;53.320;8.672;2022-11-15T16:27:17;0.20;;;0.20;;
20655;SDS011;10487;53.320;8.672;2022-11-15T16:30:21;0.20;;;0.20;;
20655;SDS011;10487;53.320;8.672;2022-11-15T16:33:24;0.22;;;0.22;;
20655;SDS011;10487;53.320;8.672;2022-11-15T16:36:26;0.30;;;0.30;;
20655;SDS011;10487;53.320;8.672;2022-11-15T16:39:31;0.20;;;0.20;;
20655;SDS011;10487;53.320;8.672;2022-11-15T16:42:33;0.20;;;0.20;;
20655;SDS011;10487;53.320;8.672;2022-11-15T16:45:35;0.20;;;0.20;;
20655;SDS011;10487;53.320;8.672;2022-11-15T16:48:36;0.20;;;0.20;;
20655;SDS011;10487;53.320;8.672;2022-11-15T16:51:38;0.20;;;0.20;;
20655;SDS011;10487;53.320;8.672;2022-11-15T16:54:41;0.30;;;0.30;;
20655;SDS011;10487;53.320;8.672;2022-11-15T16:57:43;0.20;;;0.20;;
20655;SDS011;10487;53.320;8.672;2022-11-15T17:00:48;0.20;;;0.20;;
20655;SDS011;10487;53.320;8.672;2022-11-15T17:03:51;0.20;;;0.20;;
20655;SDS011;10487;53.320;8.672;2022-11-15T17:06:54;0.20;;;0.20;;
20655;SDS011;10487;53.320;8.672;2022-11-15T17:09:56;0.20;;;0.20;;
20655;SDS011;10487;53.320;8.672;2022-11-15T17:12:58;0.20;;;0.20;;
20655;SDS011;10487;53.320;8.672;2022-11-15T17:16:03;0.22;;;0.22;;
20655;SDS011;10487;53.320;8.672;2022-11-15T17:19:16;0.20;;;0.20;;
20655;SDS011;10487;53.320;8.672;2022-11-15T17:22:20;0.20;;;0.20;;
20655;SDS011;10487;53.320;8.672;2022-11-15T17:25:21;0.20;;;0.20;;
20655;SDS011;10487;53.320;8.672;2022-11-15T17:28:23;0.35;;;0.30;;
20655;SDS011;10487;53.320;8.672;2022-11-15T17:31:24;0.20;;;0.20;;
20655;SDS011;10487;53.320;8.672;2022-11-15T17:34:27;0.15;;;0.15;;
20655;SDS011;10487;53.320;8.672;2022-11-15T17:37:28;0.30;;;0.30;;
20655;SDS011;10487;53.320;8.672;2022-11-15T17:40:30;0.47;;;0.30;;
20655;SDS011;10487;53.320;8.672;2022-11-15T17:43:32;0.30;;;0.30;;
20655;SDS011;10487;53.320;8.672;2022-11-15T17:46:34;0.20;;;0.20;;
20655;SDS011;10487;53.320;8.672;2022-11-15T17:49:36;0.20;;;0.20;;
20655;SDS011;10487;53.320;8.672;2022-11-15T17:52:40;0.22;;;0.22;;
20655;SDS011;10487;53.320;8.672;2022-11-15T17:55:42;0.45;;;0.40;;
20655;SDS011;10487;53.320;8.672;2022-11-15T17:58:50;0.30;;;0.30;;
20655;SDS011;10487;53.320;8.672;2022-11-15T18:01:53;0.30;;;0.30;;
20655;SDS011;10487;53.320;8.672;2022-11-15T18:04:55;0.40;;;0.40;;
20655;SDS011;10487;53.320;8.672;2022-11-15T18:07:56;0.30;;;0.30;;
20655;SDS011;10487;53.320;8.672;2022-11-15T18:14:33;0.30;;;0.30;;
20655;SDS011;10487;53.320;8.672;2022-11-15T18:17:35;0.47;;;0.40;;
20655;SDS011;10487;53.320;8.672;2022-11-15T18:20:37;0.30;;;0.30;;
20655;SDS011;10487;53.320;8.672;2022-11-15T18:23:39;0.30;;;0.30;;
20655;SDS011;10487;53.320;8.672;2022-11-15T18:26:41;0.45;;;0.30;;
20655;SDS011;10487;53.320;8.672;2022-11-15T18:29:43;0.30;;;0.30;;
20655;SDS011;10487;53.320;8.672;2022-11-15T18:32:45;0.40;;;0.30;;
20655;SDS011;10487;53.320;8.672;2022-11-15T18:35:47;0.30;;;0.30;;
20655;SDS011;10487;53.320;8.672;2022-11-15T18:38:55;0.30;;;0.30;;
20655;SDS011;10487;53.320;8.672;2022-11-15T18:41:58;0.20;;;0.20;;
20655;SDS011;10487;53.320;8.672;2022-11-15T18:44:59;0.30;;;0.30;;
20655;SDS011;10487;53.320;8.672;2022-11-15T18:48:02;0.30;;;0.30;;
20655;SDS011;10487;53.320;8.672;2022-11-15T18:51:04;0.30;;;0.30;;
20655;SDS011;10487;53.320;8.672;2022-11-15T18:54:11;0.28;;;0.28;;
20655;SDS011;10487;53.320;8.672;2022-11-15T18:57:14;0.38;;;0.35;;
20655;SDS011;10487;53.320;8.672;2022-11-15T19:00:15;0.30;;;0.30;;
20655;SDS011;10487;53.320;8.672;2022-11-15T19:03:18;0.20;;;0.20;;
20655;SDS011;10487;53.320;8.672;2022-11-15T19:06:25;0.20;;;0.20;;
20655;SDS011;10487;53.320;8.672;2022-11-15T19:09:29;0.30;;;0.30;;
20655;SDS011;10487;53.320;8.672;2022-11-15T19:12:32;0.30;;;0.30;;
20655;SDS011;10487;53.320;8.672;2022-11-15T19:15:34;0.20;;;0.20;;
20655;SDS011;10487;53.320;8.672;2022-11-15T19:18:35;0.20;;;0.20;;
20655;SDS011;10487;53.320;8.672;2022-11-15T19:21:37;0.40;;;0.40;;
20655;SDS011;10487;53.320;8.672;2022-11-15T19:24:39;0.50;;;0.30;;
20655;SDS011;10487;53.320;8.672;2022-11-15T19:27:41;0.55;;;0.55;;
20655;SDS011;10487;53.320;8.672;2022-11-15T19:30:42;0.52;;;0.40;;
20655;SDS011;10487;53.320;8.672;2022-11-15T19:33:44;0.30;;;0.30;;
20655;SDS011;10487;53.320;8.672;2022-11-15T19:36:46;0.40;;;0.40;;
20655;SDS011;10487;53.320;8.672;2022-11-15T19:39:47;0.63;;;0.40;;
20655;SDS011;10487;53.320;8.672;2022-11-15T19:42:49;1.02;;;0.50;;
20655;SDS011;10487;53.320;8.672;2022-11-15T19:45:52;0.30;;;0.30;;
20655;SDS011;10487;53.320;8.672;2022-11-15T19:49:01;0.30;;;0.30;;
20655;SDS011;10487;53.320;8.672;2022-11-15T19:52:02;0.30;;;0.30;;
20655;SDS011;10487;53.320;8.672;2022-11-15T19:55:04;0.30;;;0.30;;
20655;SDS011;10487;53.320;8.672;2022-11-15T19:58:06;0.35;;;0.30;;
20655;SDS011;10487;53.320;8.672;2022-11-15T20:01:18;0.85;;;0.50;;
20655;SDS011;10487;53.320;8.672;2022-11-15T20:04:20;0.40;;;0.40;;
20655;SDS011;10487;53.320;8.672;2022-11-15T20:07:22;0.43;;;0.40;;
20655;SDS011;10487;53.320;8.672;2022-11-15T20:10:24;0.43;;;0.43;;
20655;SDS011;10487;53.320;8.672;2022-11-15T20:13:26;0.30;;;0.30;;
20655;SDS011;10487;53.320;8.672;2022-11-15T20:16:28;0.40;;;0.40;;
20655;SDS011;10487;53.320;8.672;2022-11-15T20:19:29;0.22;;;0.22;;
20655;SDS011;10487;53.320;8.672;2022-11-15T20:22:31;0.68;;;0.40;;
20655;SDS011;10487;53.320;8.672;2022-11-15T20:25:33;0.88;;;0.47;;
20655;SDS011;10487;53.320;8.672;2022-11-15T20:28:38;0.35;;;0.35;;
20655;SDS011;10487;53.320;8.672;2022-11-15T20:31:40;1.65;;;0.50;;
20655;SDS011;10487;53.320;8.672;2022-11-15T20:34:42;0.30;;;0.30;;
20655;SDS011;10487;53.320;8.672;2022-11-15T20:37:44;0.35;;;0.30;;
20655;SDS011;10487;53.320;8.672;2022-11-15T20:40:46;0.40;;;0.40;;
20655;SDS011;10487;53.320;8.672;2022-11-15T20:43:48;0.40;;;0.40;;
20655;SDS011;10487;53.320;8.672;2022-11-15T20:46:50;0.38;;;0.38;;
20655;SDS011;10487;53.320;8.672;2022-11-15T20:49:52;0.40;;;0.40;;
20655;SDS011;10487;53.320;8.672;2022-11-15T20:52:55;0.40;;;0.40;;